Time,TemperatureF,DewpointF,PressureIn,WindDirection,WindDirectionDegrees,WindSpeedMPH,WindSpeedGustMPH,Humidity,HourlyPrecipIn,Conditions,Clouds,dailyrainin,SoftwareType,DateUTC
2013-08-09 00:15:00,64.0,63.5,30.01,NNW,337,0.0,-999.0,98,-99.99,,,0.00,Acu-Link.com,2013-08-09 04:15:00,
2013-08-09 00:30:00,63.5,62.9,30.01,NNW,337,0.0,-999.0,98,-99.99,,,0.00,Acu-Link.com,2013-08-09 04:30:00,
2013-08-09 00:45:00,63.1,62.6,30.00,NNW,337,0.0,-999.0,98,-99.99,,,0.00,Acu-Link.com,2013-08-09 04:45:00,
2013-08-09 01:00:00,62.8,62.2,30.00,NNW,337,0.0,-999.0,98,-99.99,,,0.00,Acu-Link.com,2013-08-09 05:00:00,
2013-08-09 01:15:00,63.0,62.4,29.99,NNW,337,0.0,-999.0,98,-99.99,,,0.00,Acu-Link.com,2013-08-09 05:15:00,
2013-08-09 01:31:00,63.0,62.4,29.99,NNW,337,0.0,-999.0,98,-99.99,,,0.00,Acu-Link.com,2013-08-09 05:31:00,
2013-08-09 01:46:00,63.0,62.4,29.98,NNW,337,0.0,-999.0,98,-99.99,,,0.00,Acu-Link.com,2013-08-09 05:46:00,
2013-08-09 02:01:00,62.8,62.2,29.98,NNW,337,0.0,-999.0,98,-99.99,,,0.00,Acu-Link.com,2013-08-09 06:01:00,
2013-08-09 02:16:00,62.4,61.8,29.98,NNW,337,0.0,-999.0,98,-99.99,,,0.00,Acu-Link.com,2013-08-09 06:16:00,
2013-08-09 02:31:00,62.4,61.8,29.97,NNW,337,0.0,-999.0,98,-99.99,,,0.00,Acu-Link.com,2013-08-09 06:31:00,
2013-08-09 02:47:00,62.2,61.7,29.97,NNW,337,0.0,-999.0,98,-99.99,,,0.00,Acu-Link.com,2013-08-09 06:47:00,
2013-08-09 03:02:00,62.1,61.5,29.97,NNW,337,0.0,-999.0,98,-99.99,,,0.00,Acu-Link.com,2013-08-09 07:02:00,
2013-08-09 03:17:00,62.1,61.5,29.97,NNW,337,0.0,-999.0,98,-99.99,,,0.00,Acu-Link.com,2013-08-09 07:17:00,
2013-08-09 03:32:00,62.1,61.5,29.97,NNW,337,0.0,-999.0,98,-99.99,,,0.00,Acu-Link.com,2013-08-09 07:32:00,
2013-08-09 03:47:00,62.4,61.8,29.96,NNW,337,0.0,-999.0,98,-99.99,,,0.00,Acu-Link.com,2013-08-09 07:47:00,
2013-08-09 04:03:00,62.4,61.8,29.96,NNW,337,0.0,-999.0,98,-99.99,,,0.00,Acu-Link.com,2013-08-09 08:03:00,
2013-08-09 04:18:00,62.4,61.8,29.96,NNW,337,0.0,-999.0,98,-99.99,,,0.00,Acu-Link.com,2013-08-09 08:18:00,
2013-08-09 04:34:00,62.4,61.8,29.96,NNW,337,0.0,-999.0,98,-99.99,,,0.00,Acu-Link.com,2013-08-09 08:34:00,
2013-08-09 04:49:00,62.4,61.8,29.97,NNW,337,0.0,-999.0,98,-99.99,,,0.00,Acu-Link.com,2013-08-09 08:49:00,
2013-08-09 05:04:00,61.9,61.3,29.96,NNW,337,0.0,-999.0,98,-99.99,,,0.00,Acu-Link.com,2013-08-09 09:04:00,
2013-08-09 05:19:00,61.7,61.1,29.96,NNW,337,0.0,-999.0,98,-99.99,,,0.00,Acu-Link.com,2013-08-09 09:19:00,
2013-08-09 05:34:00,61.3,60.8,29.96,NNW,337,0.0,-999.0,98,-99.99,,,0.00,Acu-Link.com,2013-08-09 09:34:00,
2013-08-09 05:49:00,61.3,60.8,29.96,NNW,337,0.0,-999.0,98,-99.99,,,0.00,Acu-Link.com,2013-08-09 09:49:00,
2013-08-09 06:05:00,61.2,60.6,29.96,NNW,337,0.0,-999.0,98,-99.99,,,0.00,Acu-Link.com,2013-08-09 10:05:00,
2013-08-09 06:20:00,61.3,60.8,29.96,NNW,337,0.0,-999.0,98,-99.99,,,0.00,Acu-Link.com,2013-08-09 10:20:00,
2013-08-09 06:35:00,61.5,60.9,29.95,NNW,337,0.0,-999.0,98,-99.99,,,0.00,Acu-Link.com,2013-08-09 10:35:00,
2013-08-09 06:50:00,61.5,60.9,29.95,NNW,337,0.0,-999.0,98,-99.99,,,0.00,Acu-Link.com,2013-08-09 10:50:00,
2013-08-09 07:05:00,61.9,61.3,29.95,NNW,337,0.0,-999.0,98,-99.99,,,0.00,Acu-Link.com,2013-08-09 11:05:00,
2013-08-09 07:21:00,62.6,62.0,29.95,NNW,337,0.0,-999.0,98,-99.99,,,0.00,Acu-Link.com,2013-08-09 11:21:00,
2013-08-09 07:36:00,63.0,62.4,29.95,NNW,337,0.0,-999.0,98,-99.99,,,0.00,Acu-Link.com,2013-08-09 11:36:00,
2013-08-09 07:51:00,63.5,62.9,29.95,SE,135,0.0,-999.0,98,-99.99,,,0.00,Acu-Link.com,2013-08-09 11:51:00,
2013-08-09 08:06:00,64.0,63.5,29.94,ESE,112,0.0,-999.0,98,-99.99,,,0.00,Acu-Link.com,2013-08-09 12:06:00,
2013-08-09 08:21:00,64.4,63.8,29.95,WSW,247,0.0,-999.0,98,-99.99,,,0.00,Acu-Link.com,2013-08-09 12:21:00,
2013-08-09 08:37:00,65.1,64.5,29.95,ESE,112,0.0,-999.0,98,-99.99,,,0.00,Acu-Link.com,2013-08-09 12:37:00,
2013-08-09 08:52:00,65.7,65.1,29.95,ESE,112,0.0,-999.0,98,-99.99,,,0.00,Acu-Link.com,2013-08-09 12:52:00,
2013-08-09 09:07:00,66.2,65.6,29.95,South,180,1.1,-999.0,98,-99.99,,,0.00,Acu-Link.com,2013-08-09 13:07:00,
2013-08-09 09:22:00,66.2,65.6,29.94,WSW,247,0.0,-999.0,98,-99.99,,,0.00,Acu-Link.com,2013-08-09 13:22:00,
2013-08-09 09:37:00,66.6,66.0,29.94,SSW,202,0.0,-999.0,98,-99.99,,,0.00,Acu-Link.com,2013-08-09 13:37:00,
2013-08-09 09:52:00,66.9,66.3,29.94,South,180,0.0,-999.0,98,-99.99,,,0.00,Acu-Link.com,2013-08-09 13:52:00,
2013-08-09 10:08:00,68.2,67.6,29.94,NNW,337,0.0,-999.0,98,-99.99,,,0.00,Acu-Link.com,2013-08-09 14:08:00,
2013-08-09 10:23:00,69.3,68.7,29.94,East,90,0.0,-999.0,98,-99.99,,,0.00,Acu-Link.com,2013-08-09 14:23:00,
2013-08-09 10:38:00,69.4,64.7,29.93,North,0,0.0,-999.0,85,-99.99,,,0.00,Acu-Link.com,2013-08-09 14:38:00,
2013-08-09 10:53:00,69.8,68.0,29.93,North,0,0.0,-999.0,94,-99.99,,,0.00,Acu-Link.com,2013-08-09 14:53:00,
2013-08-09 11:08:00,70.2,64.4,29.93,North,0,0.0,-999.0,82,-99.99,,,0.00,Acu-Link.com,2013-08-09 15:08:00,
2013-08-09 11:24:00,70.0,65.3,29.92,North,0,0.0,-999.0,85,-99.99,,,0.00,Acu-Link.com,2013-08-09 15:24:00,
2013-08-09 11:39:00,70.2,66.1,29.91,North,0,0.0,-999.0,87,-99.99,,,0.00,Acu-Link.com,2013-08-09 15:39:00,
2013-08-09 11:54:00,70.0,66.9,29.91,North,0,0.0,-999.0,90,-99.99,,,0.00,Acu-Link.com,2013-08-09 15:54:00,
2013-08-09 12:09:00,69.8,67.0,29.90,North,0,0.0,-999.0,91,-99.99,,,0.00,Acu-Link.com,2013-08-09 16:09:00,
2013-08-09 12:24:00,70.3,65.6,29.90,SW,225,2.2,-999.0,85,-99.99,,,0.00,Acu-Link.com,2013-08-09 16:24:00,
2013-08-09 12:40:00,70.9,66.8,29.90,NW,315,0.0,-999.0,87,-99.99,,,0.00,Acu-Link.com,2013-08-09 16:40:00,
2013-08-09 12:55:00,71.4,68.6,29.89,WNW,292,0.0,-999.0,91,-99.99,,,0.00,Acu-Link.com,2013-08-09 16:55:00,
2013-08-09 13:10:00,72.7,66.5,29.89,NE,45,0.0,-999.0,81,-99.99,,,0.00,Acu-Link.com,2013-08-09 17:10:00,
2013-08-09 13:25:00,72.9,64.5,29.89,East,90,0.0,-999.0,75,-99.99,,,0.00,Acu-Link.com,2013-08-09 17:25:00,
2013-08-09 13:40:00,74.1,63.7,29.88,NNE,22,0.0,-999.0,70,-99.99,,,0.00,Acu-Link.com,2013-08-09 17:40:00,
2013-08-09 13:56:00,75.9,62.9,29.89,NNW,337,0.0,-999.0,64,-99.99,,,0.00,Acu-Link.com,2013-08-09 17:56:00,
2013-08-09 14:11:00,75.4,64.1,29.88,NNW,337,0.0,-999.0,68,-99.99,,,0.00,Acu-Link.com,2013-08-09 18:11:00,
2013-08-09 14:26:00,77.5,64.8,29.88,ENE,67,0.0,-999.0,65,-99.99,,,0.00,Acu-Link.com,2013-08-09 18:26:00,
2013-08-09 14:41:00,77.2,63.1,29.87,SW,225,0.0,-999.0,62,-99.99,,,0.00,Acu-Link.com,2013-08-09 18:41:00,
2013-08-09 14:56:00,77.4,63.8,29.87,WSW,247,0.0,-999.0,63,-99.99,,,0.00,Acu-Link.com,2013-08-09 18:56:00,
2013-08-09 15:11:00,77.4,63.3,29.86,West,270,0.0,-999.0,62,-99.99,,,0.00,Acu-Link.com,2013-08-09 19:11:00,
2013-08-09 15:27:00,77.2,64.0,29.85,SSW,202,0.0,-999.0,64,-99.99,,,0.00,Acu-Link.com,2013-08-09 19:27:00,
2013-08-09 15:42:00,76.6,64.8,29.84,North,0,0.0,-999.0,67,-99.99,,,0.00,Acu-Link.com,2013-08-09 19:42:00,
2013-08-09 15:57:00,76.3,65.8,29.84,NW,315,0.0,-999.0,70,-99.99,,,0.00,Acu-Link.com,2013-08-09 19:57:00,
2013-08-09 16:12:00,76.1,67.2,29.84,NNW,337,0.0,-999.0,74,-99.99,,,0.00,Acu-Link.com,2013-08-09 20:12:00,
2013-08-09 16:27:00,76.6,67.3,29.83,East,90,0.0,-999.0,73,-99.99,,,0.00,Acu-Link.com,2013-08-09 20:27:00,
2013-08-09 16:43:00,75.9,65.8,29.83,ENE,67,0.0,-999.0,71,-99.99,,,0.00,Acu-Link.com,2013-08-09 20:43:00,
2013-08-09 16:58:00,76.1,63.9,29.83,SSW,202,1.6,-999.0,66,-99.99,,,0.00,Acu-Link.com,2013-08-09 20:58:00,
2013-08-09 17:13:00,75.4,65.7,29.84,SW,225,0.0,-999.0,72,-99.99,,,0.00,Acu-Link.com,2013-08-09 21:13:00,
2013-08-09 17:28:00,74.8,65.6,29.83,WSW,247,0.0,-999.0,73,-99.99,,,0.00,Acu-Link.com,2013-08-09 21:28:00,
2013-08-09 17:43:00,74.3,66.2,29.84,NNE,22,0.0,-999.0,76,-99.99,,,0.00,Acu-Link.com,2013-08-09 21:43:00,
2013-08-09 17:59:00,74.1,65.7,29.83,NNE,22,1.1,-999.0,75,-99.99,,,0.00,Acu-Link.com,2013-08-09 21:59:00,
2013-08-09 18:14:00,73.8,65.3,29.82,North,0,0.0,-999.0,75,-99.99,,,0.00,Acu-Link.com,2013-08-09 22:14:00,
2013-08-09 18:29:00,73.0,65.4,29.81,SSW,202,0.0,-999.0,77,-99.99,,,0.00,Acu-Link.com,2013-08-09 22:29:00,
2013-08-09 18:44:00,73.0,66.1,29.81,WSW,247,0.0,-999.0,79,-99.99,,,0.00,Acu-Link.com,2013-08-09 22:44:00,
2013-08-09 18:59:00,72.7,65.4,29.81,West,270,0.0,-999.0,78,-99.99,,,0.00,Acu-Link.com,2013-08-09 22:59:00,
2013-08-09 19:15:00,71.8,67.0,29.82,SW,225,0.0,-999.0,85,-99.99,,,0.00,Acu-Link.com,2013-08-09 23:15:00,
2013-08-09 19:30:00,71.2,67.5,29.81,SSW,202,0.0,-999.0,88,-99.99,,,0.00,Acu-Link.com,2013-08-09 23:30:00,
2013-08-09 19:45:00,70.9,67.1,29.81,SW,225,0.0,-999.0,88,-99.99,,,0.00,Acu-Link.com,2013-08-09 23:45:00,
2013-08-09 20:00:00,70.3,67.9,29.81,SW,225,0.0,-999.0,92,-99.99,,,0.00,Acu-Link.com,2013-08-10 00:00:00,
2013-08-09 20:15:00,69.4,67.0,29.82,SSW,202,0.0,-999.0,92,-99.99,,,0.00,Acu-Link.com,2013-08-10 00:15:00,
2013-08-09 20:31:00,68.7,66.6,29.82,SSW,202,0.0,-999.0,93,-99.99,,,0.00,Acu-Link.com,2013-08-10 00:31:00,
2013-08-09 20:46:00,68.0,67.4,29.82,SSW,202,0.0,-999.0,98,-99.99,,,0.00,Acu-Link.com,2013-08-10 00:46:00,
2013-08-09 21:01:00,67.1,66.5,29.82,NNW,337,0.0,-999.0,98,-99.99,,,0.00,Acu-Link.com,2013-08-10 01:01:00,
2013-08-09 21:16:00,66.7,66.2,29.82,NNW,337,0.0,-999.0,98,-99.99,,,0.00,Acu-Link.com,2013-08-10 01:16:00,
2013-08-09 21:31:00,65.8,65.3,29.82,NNW,337,0.0,-999.0,98,-99.99,,,0.00,Acu-Link.com,2013-08-10 01:31:00,
2013-08-09 21:47:00,65.1,64.5,29.82,NNW,337,0.0,-999.0,98,-99.99,,,0.00,Acu-Link.com,2013-08-10 01:47:00,
2013-08-09 22:02:00,64.6,64.0,29.83,NNW,337,0.0,-999.0,98,-99.99,,,0.00,Acu-Link.com,2013-08-10 02:02:00,
2013-08-09 22:17:00,64.0,63.5,29.82,NNW,337,0.0,-999.0,98,-99.99,,,0.00,Acu-Link.com,2013-08-10 02:17:00,
2013-08-09 22:32:00,63.3,62.7,29.81,NNW,337,0.0,-999.0,98,-99.99,,,0.00,Acu-Link.com,2013-08-10 02:32:00,
2013-08-09 22:47:00,63.1,62.6,29.82,NNW,337,0.0,-999.0,98,-99.99,,,0.00,Acu-Link.com,2013-08-10 02:47:00,
2013-08-09 23:03:00,63.0,62.4,29.81,NNW,337,0.0,-999.0,98,-99.99,,,0.00,Acu-Link.com,2013-08-10 03:03:00,
2013-08-09 23:18:00,62.6,62.0,29.81,NNW,337,0.0,-999.0,98,-99.99,,,0.00,Acu-Link.com,2013-08-10 03:18:00,
2013-08-09 23:33:00,62.1,61.5,29.81,NNW,337,0.0,-999.0,98,-99.99,,,0.00,Acu-Link.com,2013-08-10 03:33:00,
2013-08-09 23:48:00,61.7,61.1,29.81,NNW,337,0.0,-999.0,98,-99.99,,,0.00,Acu-Link.com,2013-08-10 03:48:00,